Stations météo

réclame
Mon MeteoGroup
Great Dun Fell, Grande-Bretagne (3227): Température de l'air & dewpoint: 11.01.2019 01:00:00 - 17.01.2019 01:00:00 (GMT)Great Dun Fell, Grande-Bretagne (3227): Vitesse du vent & gusts: 11.01.2019 01:00:00 - 17.01.2019 01:00:00 (GMT)Great Dun Fell, Grande-Bretagne (3227): Direction du vent: 11.01.2019 01:00:00 - 17.01.2019 01:00:00 (GMT)
Date & Time tt [°C] td [°C] ff [km/h] ff [knt] fx [km/h] fx [knt] dd
17.01.2019 01:00:00 -2,4 -2,6 54 29 68 37 NNW
17.01.2019 00:00:00 - - - - - - -
16.01.2019 23:00:00 -2,1 -2,2 42 23 61 33 NW
16.01.2019 22:00:00 -1,8 -1,9 46 25 61 33 WNW
16.01.2019 21:00:00 -1,6 -1,7 48 26 61 33 W
16.01.2019 20:00:00 -1,6 -1,7 48 26 65 35 W
16.01.2019 19:00:00 -1,3 -1,4 50 27 65 35 W
16.01.2019 18:00:00 -1,4 -1,4 48 26 63 34 W
16.01.2019 17:00:00 -1,4 -1,4 54 29 70 38 W
16.01.2019 16:00:00 -1,2 -1,2 59 32 70 38 W
16.01.2019 15:00:00 -1,1 -1,1 55 30 76 41 W
16.01.2019 14:00:00 -1,1 -1,1 55 30 68 37 W
16.01.2019 13:00:00 -1,0 -1,0 52 28 70 38 W
16.01.2019 12:00:00 -0,3 -0,3 55 30 80 43 W
16.01.2019 11:00:00 0,1 0,1 50 27 76 41 W
16.01.2019 10:00:00 -0,1 -0,1 50 27 72 39 W
16.01.2019 09:00:00 0,8 0,8 59 32 81 44 W
16.01.2019 08:00:00 0,5 0,5 59 32 89 48 W
16.01.2019 07:00:00 1,3 1,3 65 35 87 47 W
16.01.2019 06:00:00 2,7 2,7 78 42 89 48 WSW
16.01.2019 05:00:00 3,0 3,0 70 38 83 45 WSW
16.01.2019 04:00:00 3,1 3,1 55 30 80 43 WSW
16.01.2019 03:00:00 3,0 3,0 59 32 81 44 SW
16.01.2019 02:00:00 3,0 3,0 68 37 85 46 SW
16.01.2019 01:00:00 3,2 3,2 74 40 87 47 WSW
16.01.2019 00:00:00 3,2 3,2 59 32 74 40 WSW
15.01.2019 23:00:00 2,9 2,9 55 30 68 37 WSW
15.01.2019 22:00:00 2,8 2,8 59 32 74 40 SW
15.01.2019 21:00:00 2,7 2,7 63 34 78 42 WSW
15.01.2019 20:00:00 2,4 2,4 67 36 85 46 WSW
15.01.2019 19:00:00 2,2 2,2 70 38 87 47 WSW
15.01.2019 18:00:00 1,9 1,9 76 41 87 47 WSW
15.01.2019 17:00:00 1,8 1,8 74 40 85 46 WSW
15.01.2019 16:00:00 2,1 2,1 63 34 80 43 WSW
15.01.2019 15:00:00 2,3 2,3 72 39 83 45 WSW
15.01.2019 14:00:00 2,6 2,6 74 40 85 46 WSW
15.01.2019 13:00:00 2,5 2,5 76 41 91 49 WSW
15.01.2019 12:00:00 2,6 2,6 67 36 76 41 WSW
15.01.2019 11:00:00 3,0 3,0 59 32 76 41 W
15.01.2019 10:00:00 2,9 2,9 63 34 74 40 WSW
15.01.2019 09:00:00 2,9 2,9 55 30 76 41 W
15.01.2019 08:00:00 3,0 - 63 34 83 45 W
15.01.2019 07:00:00 3,1 - 61 33 68 37 W
15.01.2019 06:00:00 2,7 - 59 32 67 36 W
15.01.2019 05:00:00 2,7 - 52 28 70 38 W
15.01.2019 04:00:00 2,6 - 61 33 76 41 W
15.01.2019 03:00:00 2,6 - 67 36 83 45 W
15.01.2019 02:00:00 2,5 - 68 37 85 46 W
15.01.2019 01:00:00 2,5 - 74 40 85 46 W
15.01.2019 00:00:00 2,2 - 65 35 72 39 W
14.01.2019 23:00:00 1,7 - 59 32 67 36 W
14.01.2019 22:00:00 1,4 - 50 27 57 31 WSW
14.01.2019 21:00:00 1,2 - 46 25 59 32 W
14.01.2019 20:00:00 0,9 - 44 24 54 29 W
14.01.2019 19:00:00 0,6 - 54 29 68 37 W
14.01.2019 18:00:00 0,5 - 55 30 61 33 W
14.01.2019 17:00:00 0,3 - 35 19 - - W
14.01.2019 16:00:00 0,5 - 39 21 50 27 W
14.01.2019 15:00:00 0,7 - 41 22 48 26 W
14.01.2019 14:00:00 0,6 - 29 16 48 26 WNW
14.01.2019 13:00:00 0,5 - 31 17 48 26 WNW
14.01.2019 12:00:00 0,3 - 29 16 - - WNW
14.01.2019 11:00:00 -0,1 - 29 16 - - NW
14.01.2019 10:00:00 -0,1 - 31 17 50 27 NW
14.01.2019 09:00:00 -0,2 - 35 19 54 29 NW
14.01.2019 08:00:00 0,1 - 37 20 61 33 NW
14.01.2019 07:00:00 0,2 - 41 22 54 29 NW
14.01.2019 06:00:00 0,2 - 42 23 59 32 NW
14.01.2019 05:00:00 0,2 - 41 22 63 34 NW
14.01.2019 04:00:00 0,1 - 54 29 67 36 NW
14.01.2019 03:00:00 0,2 - 44 24 65 35 NW
14.01.2019 02:00:00 0,3 - 54 29 68 37 WNW
14.01.2019 01:00:00 0,4 - 55 30 68 37 NW
14.01.2019 00:00:00 0,6 - 52 28 70 38 NW
13.01.2019 23:00:00 0,8 - 48 26 78 42 WNW
13.01.2019 22:00:00 0,8 - 50 27 68 37 WNW
13.01.2019 21:00:00 0,6 - 48 26 80 43 WNW
13.01.2019 20:00:00 0,6 - 57 31 102 55 WNW
13.01.2019 19:00:00 0,8 - 65 35 106 57 WNW
13.01.2019 18:00:00 1,1 - 72 39 98 53 WNW
13.01.2019 17:00:00 1,0 - 78 42 96 52 WNW
13.01.2019 16:00:00 1,0 - 70 38 100 54 W
13.01.2019 15:00:00 1,7 - 81 44 102 55 WNW
13.01.2019 14:00:00 1,9 - 78 42 106 57 WNW
13.01.2019 13:00:00 2,9 - 76 41 107 58 W
13.01.2019 12:00:00 3,6 - 80 43 106 57 W
13.01.2019 11:00:00 3,8 - 89 48 113 61 W
13.01.2019 10:00:00 4,6 - 78 42 102 55 W
13.01.2019 09:00:00 4,5 - 74 40 104 56 W
13.01.2019 08:00:00 4,3 - 83 45 104 56 W
13.01.2019 07:00:00 4,3 - 68 37 100 54 W
13.01.2019 06:00:00 4,2 - 67 36 93 50 W
13.01.2019 05:00:00 4,0 - 80 43 106 57 W
13.01.2019 04:00:00 3,9 - 81 44 109 59 W
13.01.2019 03:00:00 4,1 - 78 42 96 52 W
13.01.2019 02:00:00 3,8 - 78 42 106 57 W
13.01.2019 01:00:00 4,2 - 74 40 93 50 W
13.01.2019 00:00:00 4,3 - 78 42 109 59 W
12.01.2019 23:00:00 4,5 - 94 51 113 61 W
12.01.2019 22:00:00 4,7 - 87 47 109 59 W
12.01.2019 21:00:00 4,9 - 81 44 106 57 W
12.01.2019 20:00:00 5,0 4,8 70 38 87 47 W
12.01.2019 19:00:00 5,0 4,9 67 36 91 49 W
12.01.2019 18:00:00 4,9 4,7 70 38 96 52 W
12.01.2019 17:00:00 4,4 - 70 38 87 47 W
12.01.2019 16:00:00 3,5 3,3 67 36 87 47 W
12.01.2019 15:00:00 3,0 2,8 72 39 87 47 W
12.01.2019 14:00:00 2,7 2,5 68 37 89 48 W
12.01.2019 13:00:00 2,6 2,5 74 40 93 50 W
12.01.2019 12:00:00 2,4 2,2 70 38 87 47 W
12.01.2019 11:00:00 2,4 2,2 61 33 81 44 W
12.01.2019 10:00:00 2,2 2,1 61 33 83 45 W
12.01.2019 09:00:00 2,3 2,2 65 35 85 46 W
12.01.2019 08:00:00 2,2 2,1 68 37 87 47 W
12.01.2019 07:00:00 2,5 2,3 68 37 96 52 W
12.01.2019 06:00:00 2,7 2,5 78 42 102 55 W
12.01.2019 05:00:00 2,7 2,5 76 41 117 63 W
12.01.2019 04:00:00 3,8 3,6 87 47 109 59 W
12.01.2019 03:00:00 3,6 3,5 78 42 93 50 W
12.01.2019 02:00:00 3,3 3,2 78 42 94 51 W
12.01.2019 01:00:00 2,8 2,6 81 44 94 51 W
12.01.2019 00:00:00 2,6 2,5 68 37 80 43 W
11.01.2019 23:00:00 2,6 2,5 57 31 74 40 W
11.01.2019 22:00:00 2,8 2,6 61 33 72 39 W
11.01.2019 21:00:00 2,7 2,6 63 34 72 39 W
11.01.2019 20:00:00 2,6 2,4 61 33 72 39 W
11.01.2019 19:00:00 2,5 2,3 57 31 70 38 W
11.01.2019 18:00:00 2,4 2,3 50 27 63 34 W
11.01.2019 17:00:00 2,2 2,2 52 28 57 31 W
11.01.2019 16:00:00 1,5 1,4 31 17 - - WNW
11.01.2019 15:00:00 1,3 1,3 31 17 - - W
11.01.2019 14:00:00 1,3 1,1 35 19 50 27 WNW
11.01.2019 13:00:00 1,2 1,1 26 14 - - WNW
11.01.2019 12:00:00 0,9 0,9 29 16 - - NW
11.01.2019 11:00:00 1,1 1,1 24 13 - - NW
11.01.2019 10:00:00 0,1 0,1 18 10 - - NNW
11.01.2019 09:00:00 0,2 0,2 22 12 - - NW
11.01.2019 08:00:00 0,5 0,5 24 13 - - NW
11.01.2019 07:00:00 0,5 0,5 28 15 - - NW
11.01.2019 06:00:00 1,7 1,7 22 12 - - NW
11.01.2019 05:00:00 1,6 1,4 24 13 - - NW
11.01.2019 04:00:00 2,1 1,1 22 12 - - NW
11.01.2019 03:00:00 1,4 0,4 24 13 - - NNW
11.01.2019 02:00:00 1,5 0,4 22 12 - - NNW
11.01.2019 01:00:00 1,0 0,7 22 12 - - NNW

tt = Température de l'air
td = dewpoint
ff = Vitesse du vent
fx = gusts
dd = Direction du vent

stations d'obs. à proximité